createdAt,value
2023-05-02T00:01:05.526Z,86.26
2023-05-02T00:03:37.741Z,86.61
2023-05-02T00:06:10.387Z,87.33
2023-05-02T00:08:54.080Z,91.48
2023-05-02T00:11:26.466Z,91.17
2023-05-02T00:13:58.808Z,92.24
2023-05-02T00:16:31.194Z,93.35
2023-05-02T00:19:03.687Z,94.09
2023-05-02T00:21:35.703Z,94.79
2023-05-02T00:24:08.338Z,94.93
2023-05-02T00:26:40.391Z,95.07
2023-05-02T00:29:13.241Z,97.46
2023-05-02T00:31:45.521Z,98.53
2023-05-02T00:34:17.841Z,98.19
2023-05-02T00:36:49.949Z,98.64
2023-05-02T00:39:22.059Z,99.04
2023-05-02T00:41:59.831Z,99.69
2023-05-02T00:44:32.086Z,99.69
2023-05-02T00:47:07.487Z,99.81
2023-05-02T00:49:39.556Z,100.00
2023-05-02T00:52:13.095Z,100.00
2023-05-02T00:54:45.404Z,100.00
2023-05-02T00:57:17.628Z,100.00
2023-05-02T00:59:49.696Z,100.00
2023-05-02T05:23:53.797Z,62.31
2023-05-02T05:26:28.371Z,63.80
2023-05-02T05:28:59.230Z,62.01
2023-05-02T05:31:32.920Z,60.41
2023-05-02T05:34:05.383Z,61.97
2023-05-02T05:36:38.177Z,59.17
2023-05-02T05:39:08.662Z,58.73
2023-05-02T05:41:42.911Z,58.65
2023-05-02T05:44:15.907Z,60.69
2023-05-02T05:46:47.492Z,60.31
2023-05-02T05:49:18.707Z,60.56
2023-05-02T05:51:49.972Z,59.56
2023-05-02T05:54:26.181Z,58.92
2023-05-02T05:57:16.233Z,57.24
2023-05-02T06:00:10.709Z,56.91
2023-05-02T06:02:48.655Z,57.02
2023-05-02T06:05:28.754Z,56.05
2023-05-02T06:07:59.077Z,57.08
2023-05-02T06:10:31.548Z,56.31
2023-05-02T06:13:01.902Z,56.60
2023-05-02T06:15:37.282Z,56.08
2023-05-02T06:18:08.709Z,56.88
2023-05-02T06:20:39.488Z,56.98
2023-05-02T06:23:09.695Z,57.16
2023-05-02T06:25:43.029Z,57.10
2023-05-02T06:28:13.480Z,56.21
2023-05-02T06:30:43.657Z,58.84
2023-05-02T06:33:14.280Z,56.94
2023-05-02T06:35:44.215Z,56.21
2023-05-02T06:38:18.377Z,56.47
2023-05-02T06:40:51.844Z,56.35
2023-05-02T06:43:20.633Z,55.98
2023-05-02T06:45:54.743Z,54.34
2023-05-02T06:48:25.435Z,55.29
2023-05-02T06:50:56.013Z,52.57
2023-05-02T06:53:26.103Z,53.37
2023-05-02T06:55:56.244Z,53.00
2023-05-02T06:58:26.355Z,52.42
2023-05-02T07:00:56.527Z,53.02
2023-05-02T07:03:26.904Z,54.06
2023-05-02T07:05:57.252Z,51.67
2023-05-02T07:08:27.183Z,53.26
2023-05-02T07:10:57.050Z,52.19
2023-05-02T07:13:26.991Z,51.07
2023-05-02T07:15:57.152Z,52.37
2023-05-02T07:18:28.662Z,53.82
2023-05-02T07:21:01.226Z,54.37
2023-05-02T07:23:31.056Z,51.51
2023-05-02T07:26:00.981Z,51.77
2023-05-02T07:28:31.394Z,52.83
2023-05-02T07:31:01.703Z,53.38
2023-05-02T07:33:31.737Z,52.78
2023-05-02T07:36:04.092Z,53.75
2023-05-02T07:38:33.940Z,52.77
2023-05-02T07:41:03.915Z,53.88
2023-05-02T07:43:34.078Z,54.12
2023-05-02T07:46:10.080Z,53.25
2023-05-02T07:48:41.930Z,52.88
2023-05-02T07:51:12.723Z,52.67
2023-05-02T07:53:43.300Z,52.91
2023-05-02T07:56:13.157Z,54.78
2023-05-02T07:58:43.638Z,52.32
2023-05-02T08:01:14.038Z,51.16
2023-05-02T08:03:44.050Z,51.84
2023-05-02T08:06:14.182Z,51.71
2023-05-02T08:08:44.451Z,52.59
2023-05-02T08:11:15.198Z,52.39
2023-05-02T08:13:45.229Z,53.75
2023-05-02T08:16:15.243Z,53.27
2023-05-02T08:18:45.504Z,53.98
2023-05-02T08:21:15.687Z,54.46
2023-05-02T08:23:46.543Z,54.91
2023-05-02T08:26:18.807Z,53.14
2023-05-02T08:28:48.997Z,54.84
2023-05-02T08:31:18.959Z,57.98
2023-05-02T08:33:49.106Z,56.01
2023-05-02T08:36:19.801Z,56.35
2023-05-02T08:38:50.019Z,54.69
2023-05-02T08:41:20.646Z,53.48
2023-05-02T08:43:50.477Z,52.42
2023-05-02T08:46:23.298Z,54.72
2023-05-02T08:48:54.250Z,51.95
2023-05-02T08:51:25.456Z,52.59
2023-05-02T08:53:57.214Z,53.23
2023-05-02T08:56:29.923Z,55.58
2023-05-02T08:59:01.433Z,53.84
2023-05-02T09:01:35.053Z,53.72
2023-05-02T09:04:06.556Z,53.65
2023-05-02T09:06:38.918Z,52.80
2023-05-02T09:09:11.172Z,54.41
2023-05-02T09:11:43.766Z,52.63
2023-05-02T09:14:18.661Z,52.32
2023-05-02T09:16:50.046Z,52.88
2023-05-02T09:19:28.794Z,51.81
2023-05-02T09:22:04.208Z,53.05
2023-05-02T09:24:36.205Z,51.36
2023-05-02T09:27:10.024Z,52.17
2023-05-02T09:29:44.978Z,53.52
2023-05-02T09:32:17.598Z,53.93
2023-05-02T09:35:06.948Z,53.61
2023-05-02T09:37:41.886Z,54.70
2023-05-02T09:40:15.052Z,52.68
2023-05-02T09:42:47.047Z,52.94
2023-05-02T09:45:25.821Z,52.08
2023-05-02T09:48:03.727Z,53.83
2023-05-02T09:50:39.815Z,51.42
2023-05-02T09:53:12.016Z,52.02
2023-05-02T09:55:43.468Z,51.21
2023-05-02T09:58:25.718Z,52.59
2023-05-02T10:00:56.828Z,49.47
2023-05-02T10:03:30.039Z,48.94
2023-05-02T10:06:02.146Z,50.63
2023-05-02T10:08:35.656Z,51.11
2023-05-02T10:11:10.506Z,50.53
2023-05-02T10:13:44.661Z,49.05
2023-05-02T10:16:20.725Z,47.92
2023-05-02T10:19:01.525Z,49.03
2023-05-02T10:21:32.745Z,49.83
2023-05-02T10:24:05.130Z,48.38
2023-05-02T10:26:37.423Z,49.55
2023-05-02T10:29:10.323Z,49.12
2023-05-02T10:31:44.253Z,47.39
2023-05-02T10:34:18.046Z,45.90
2023-05-02T10:36:49.725Z,45.56
2023-05-02T10:39:24.625Z,48.17
2023-05-02T10:41:57.623Z,50.64
2023-05-02T10:44:37.308Z,47.55
2023-05-02T10:47:22.066Z,49.38
2023-05-02T10:49:55.260Z,48.51
2023-05-02T10:52:33.220Z,49.26
2023-05-02T10:55:21.849Z,47.59
2023-05-02T10:58:23.955Z,50.39
2023-05-02T11:00:54.472Z,50.53
2023-05-02T11:03:55.675Z,50.56
2023-05-02T11:06:27.257Z,49.82
2023-05-02T11:09:36.273Z,49.87
2023-05-02T11:12:06.994Z,49.62
2023-05-02T11:14:49.406Z,48.34
2023-05-02T11:17:20.884Z,49.75
2023-05-02T11:20:28.203Z,49.21
2023-05-02T11:23:00.026Z,47.26
2023-05-02T11:25:47.378Z,47.60
2023-05-02T11:28:41.907Z,48.03
2023-05-02T11:31:32.505Z,48.45
2023-05-02T11:34:04.335Z,48.10
2023-05-02T11:36:36.122Z,49.21
2023-05-02T11:39:19.339Z,50.20
2023-05-02T11:41:50.880Z,48.06
2023-05-02T11:44:21.160Z,49.12
2023-05-02T11:46:51.161Z,48.42
2023-05-02T11:49:21.325Z,48.51
2023-05-02T11:51:52.175Z,50.03
2023-05-02T11:54:22.851Z,48.38
2023-05-02T11:56:52.962Z,50.27
2023-05-02T11:59:22.846Z,49.60
2023-05-02T12:01:57.318Z,49.65
2023-05-02T12:04:27.972Z,46.38
2023-05-02T12:06:58.667Z,45.95
2023-05-02T12:09:28.626Z,46.19
2023-05-02T12:11:59.917Z,46.37
2023-05-02T12:14:35.400Z,46.18
2023-05-02T12:17:06.577Z,46.34
2023-05-02T12:19:53.217Z,43.56
2023-05-02T12:22:25.861Z,46.25
2023-05-02T12:24:56.159Z,46.77
2023-05-02T12:27:27.143Z,46.69
2023-05-02T12:29:58.373Z,47.71
2023-05-02T12:32:33.549Z,46.67
2023-05-02T12:35:04.711Z,46.67
2023-05-02T12:37:37.017Z,47.58
2023-05-02T12:40:17.281Z,48.26
2023-05-02T12:43:01.216Z,47.33
2023-05-02T12:45:33.548Z,48.18
2023-05-02T12:48:18.146Z,47.22
2023-05-02T12:50:48.169Z,48.26
2023-05-02T12:53:38.120Z,48.06
2023-05-02T12:56:09.987Z,48.68
2023-05-02T12:58:44.539Z,49.29
2023-05-02T13:01:15.697Z,48.55
2023-05-02T13:03:46.580Z,49.72
2023-05-02T13:06:16.690Z,50.19
2023-05-02T13:08:46.957Z,49.70
2023-05-02T13:11:17.586Z,50.60
2023-05-02T13:13:47.693Z,52.62
2023-05-02T13:16:18.344Z,51.72
2023-05-02T13:18:48.581Z,52.06
2023-05-02T13:21:18.383Z,54.02
2023-05-02T13:23:50.674Z,53.64
2023-05-02T13:26:20.933Z,55.06
2023-05-02T13:28:51.669Z,55.64
2023-05-02T13:31:22.295Z,55.55
2023-05-02T13:33:52.508Z,56.80
2023-05-02T13:36:24.052Z,55.80
2023-05-02T13:38:54.083Z,54.89
2023-05-02T13:41:24.173Z,56.65
2023-05-02T13:43:55.523Z,55.13
2023-05-02T13:46:25.880Z,55.70
2023-05-02T13:48:55.735Z,56.77
2023-05-02T13:51:27.123Z,56.64
2023-05-02T13:53:56.959Z,56.35
2023-05-02T13:56:27.045Z,57.31
2023-05-02T13:58:57.080Z,57.67
2023-05-02T14:01:28.060Z,57.51
2023-05-02T14:03:58.383Z,57.51
2023-05-02T14:06:28.418Z,58.39
2023-05-02T14:08:58.606Z,58.32
2023-05-02T14:11:28.775Z,59.19
2023-05-02T14:13:59.508Z,60.05
2023-05-02T14:16:30.349Z,59.33
2023-05-02T14:19:00.648Z,60.30
2023-05-02T14:21:31.563Z,59.70
2023-05-02T14:24:01.734Z,60.88
2023-05-02T14:26:31.973Z,59.97
2023-05-02T14:29:01.864Z,60.77
2023-05-02T14:31:32.094Z,60.73
2023-05-02T14:34:02.151Z,60.38
2023-05-02T14:36:52.093Z,60.82
2023-05-02T14:39:22.165Z,61.50
2023-05-02T14:41:52.200Z,62.47
2023-05-02T14:44:22.112Z,61.67
2023-05-02T14:46:56.138Z,60.82
2023-05-02T14:49:27.575Z,61.55
2023-05-02T14:51:58.618Z,60.95
2023-05-02T14:54:34.778Z,65.20
2023-05-02T14:57:05.267Z,68.38
2023-05-02T14:59:35.702Z,71.19
2023-05-02T15:02:06.415Z,74.95
2023-05-02T15:04:36.450Z,79.42
2023-05-02T15:07:06.586Z,82.13
2023-05-02T15:09:36.753Z,88.82
2023-05-02T15:12:07.415Z,98.15
2023-05-02T15:14:37.363Z,100.00
2023-05-02T15:17:07.806Z,100.00
2023-05-02T15:19:37.917Z,100.00
2023-05-02T15:22:09.831Z,100.00
2023-05-02T15:24:40.494Z,100.00
2023-05-02T15:27:10.618Z,100.00
2023-05-02T15:29:43.507Z,100.00
2023-05-02T15:32:16.215Z,100.00
2023-05-02T15:35:36.457Z,100.00
2023-05-02T15:43:07.394Z,100.00
2023-05-02T15:45:52.976Z,100.00
2023-05-02T15:48:23.498Z,100.00
2023-05-02T15:50:54.225Z,100.00
2023-05-02T15:53:24.607Z,100.00
2023-05-02T15:55:54.835Z,100.00
2023-05-02T15:58:24.907Z,100.00
2023-05-02T16:00:55.524Z,100.00
2023-05-02T16:03:25.722Z,100.00
2023-05-02T16:05:57.812Z,100.00
2023-05-02T16:08:28.349Z,100.00
2023-05-02T16:11:01.136Z,100.00
2023-05-02T16:13:31.349Z,100.00
2023-05-02T16:16:01.472Z,100.00
2023-05-02T16:18:34.059Z,100.00
2023-05-02T16:21:06.082Z,100.00
2023-05-02T16:23:36.252Z,100.00
2023-05-02T16:26:06.565Z,100.00
2023-05-02T16:28:36.734Z,100.00
2023-05-02T16:31:10.952Z,100.00
2023-05-02T16:33:42.433Z,100.00
2023-05-02T16:36:14.963Z,100.00
2023-05-02T16:38:45.142Z,100.00
2023-05-02T16:41:15.036Z,100.00
2023-05-02T16:43:45.066Z,100.00
2023-05-02T16:46:15.195Z,100.00
2023-05-02T16:48:45.215Z,100.00
2023-05-02T16:51:15.485Z,100.00
2023-05-02T16:53:45.967Z,100.00
2023-05-02T16:56:16.057Z,100.00
2023-05-02T16:58:46.217Z,100.00
2023-05-02T17:01:16.985Z,100.00
2023-05-02T17:03:47.133Z,100.00
2023-05-02T17:06:18.800Z,100.00
2023-05-02T17:08:56.336Z,100.00
2023-05-02T17:11:28.520Z,100.00
2023-05-02T17:14:02.413Z,100.00
2023-05-02T17:16:43.533Z,100.00
2023-05-02T17:19:16.011Z,100.00
2023-05-02T17:21:46.334Z,100.00
2023-05-02T17:24:16.785Z,100.00
2023-05-02T17:26:47.138Z,100.00
2023-05-02T17:29:17.296Z,100.00
2023-05-02T17:31:48.237Z,100.00
2023-05-02T17:34:18.614Z,100.00
2023-05-02T17:36:48.864Z,100.00
2023-05-02T17:39:18.834Z,100.00
2023-05-02T17:41:48.927Z,100.00
2023-05-02T17:44:19.457Z,100.00
2023-05-02T17:46:53.754Z,100.00
2023-05-02T17:49:26.630Z,100.00
2023-05-02T17:51:57.184Z,100.00
2023-05-02T17:54:27.184Z,100.00
2023-05-02T17:56:57.473Z,100.00
2023-05-02T17:59:28.724Z,100.00
2023-05-02T18:02:00.770Z,100.00
2023-05-02T18:04:37.767Z,100.00
2023-05-02T18:07:09.466Z,100.00
2023-05-02T18:09:49.090Z,100.00
2023-05-02T18:12:22.156Z,100.00
2023-05-02T18:14:54.772Z,100.00
2023-05-02T18:17:27.881Z,100.00
2023-05-02T18:20:06.380Z,100.00
2023-05-02T18:22:37.658Z,100.00
2023-05-02T18:25:30.419Z,100.00
2023-05-02T18:28:04.398Z,100.00
2023-05-02T18:30:40.236Z,100.00
2023-05-02T18:33:13.408Z,100.00
2023-05-02T18:35:50.395Z,100.00
2023-05-02T18:38:22.700Z,100.00
2023-05-02T18:40:55.366Z,100.00
2023-05-02T18:43:26.009Z,100.00
2023-05-02T18:45:56.084Z,100.00
2023-05-02T18:48:32.225Z,100.00
2023-05-02T18:51:06.390Z,100.00
2023-05-02T18:53:41.192Z,100.00
2023-05-02T18:56:18.128Z,100.00
2023-05-02T18:58:49.386Z,100.00
2023-05-02T19:01:21.758Z,100.00
2023-05-02T19:04:01.048Z,100.00
2023-05-02T19:06:33.454Z,100.00
2023-05-02T19:09:04.588Z,100.00
2023-05-02T19:11:34.967Z,100.00
2023-05-02T19:14:05.478Z,100.00
2023-05-02T19:16:37.761Z,100.00
2023-05-02T19:19:11.189Z,100.00
2023-05-02T19:21:41.374Z,100.00
2023-05-02T19:24:13.361Z,100.00
2023-05-02T19:26:43.831Z,100.00
2023-05-02T19:29:13.826Z,100.00
2023-05-02T19:31:44.549Z,100.00
2023-05-02T19:34:14.696Z,100.00
2023-05-02T19:36:44.630Z,100.00
2023-05-02T19:39:14.829Z,100.00
2023-05-02T19:41:44.980Z,100.00
2023-05-02T19:44:15.594Z,100.00
2023-05-02T19:46:46.447Z,100.00
2023-05-02T19:49:17.647Z,100.00
2023-05-02T19:51:47.875Z,100.00
2023-05-02T19:54:21.848Z,100.00
2023-05-02T19:56:52.965Z,100.00
2023-05-02T19:59:34.259Z,100.00
2023-05-02T20:02:06.450Z,100.00
2023-05-02T20:04:37.028Z,100.00
2023-05-02T20:07:09.957Z,100.00
2023-05-02T20:09:39.590Z,100.00
2023-05-02T20:12:09.566Z,100.00
2023-05-02T20:14:40.767Z,100.00
2023-05-02T20:17:16.157Z,100.00
2023-05-02T20:19:46.657Z,100.00
2023-05-02T20:22:16.595Z,100.00
2023-05-02T20:24:46.801Z,100.00
2023-05-02T20:27:17.026Z,100.00
2023-05-02T20:29:52.701Z,100.00
2023-05-02T20:32:27.839Z,100.00
2023-05-02T20:34:58.522Z,100.00
2023-05-02T20:37:29.263Z,100.00
2023-05-02T20:39:59.758Z,100.00
2023-05-02T20:42:31.269Z,100.00
2023-05-02T20:45:05.175Z,100.00
2023-05-02T20:47:38.172Z,100.00
2023-05-02T20:50:11.254Z,100.00
2023-05-02T20:52:42.952Z,100.00
2023-05-02T20:55:14.088Z,100.00
2023-05-02T20:57:51.647Z,100.00
2023-05-02T21:00:24.671Z,100.00
2023-05-02T21:02:58.272Z,100.00
2023-05-02T21:05:27.530Z,100.00
2023-05-02T21:07:57.531Z,100.00
2023-05-02T21:10:29.733Z,100.00
2023-05-02T21:13:02.624Z,100.00
2023-05-02T21:15:36.713Z,100.00
2023-05-02T21:18:07.487Z,100.00
2023-05-02T21:20:41.286Z,100.00
2023-05-02T21:23:12.614Z,100.00
2023-05-02T21:25:43.735Z,100.00
2023-05-02T21:28:14.183Z,100.00
2023-05-02T21:30:44.758Z,100.00
2023-05-02T21:33:17.402Z,100.00
2023-05-02T21:35:47.354Z,100.00
2023-05-02T21:38:17.526Z,100.00
2023-05-02T21:40:47.485Z,100.00
2023-05-02T21:43:17.534Z,100.00
2023-05-02T21:45:48.209Z,100.00
2023-05-02T21:48:18.543Z,100.00
2023-05-02T21:50:49.221Z,100.00
2023-05-02T21:53:19.336Z,100.00
2023-05-02T21:55:49.297Z,100.00
2023-05-02T21:58:19.400Z,100.00
2023-05-02T22:00:49.461Z,100.00
2023-05-02T22:03:19.499Z,100.00
2023-05-02T22:05:50.771Z,100.00
2023-05-02T22:08:21.596Z,100.00
2023-05-02T22:10:51.622Z,100.00
2023-05-02T22:13:23.851Z,100.00
2023-05-02T22:15:54.014Z,100.00
2023-05-02T22:18:24.317Z,100.00
2023-05-02T22:20:55.354Z,100.00
2023-05-02T22:23:25.388Z,100.00
2023-05-02T22:25:55.603Z,100.00
2023-05-02T22:28:26.781Z,100.00
2023-05-02T22:30:56.756Z,100.00
2023-05-02T22:33:26.661Z,100.00
2023-05-02T22:35:57.156Z,100.00
2023-05-02T22:38:27.214Z,100.00
2023-05-02T22:40:56.998Z,100.00
2023-05-02T22:43:27.478Z,100.00
2023-05-02T22:45:58.559Z,100.00
2023-05-02T22:48:29.026Z,100.00
2023-05-02T22:50:58.846Z,100.00
2023-05-02T22:53:29.956Z,100.00
2023-05-02T22:55:59.847Z,100.00
2023-05-02T22:58:30.082Z,100.00
2023-05-02T23:01:00.267Z,100.00
2023-05-02T23:03:30.186Z,100.00
2023-05-02T23:06:00.904Z,100.00
2023-05-02T23:08:30.743Z,100.00
2023-05-02T23:11:00.970Z,100.00
2023-05-02T23:13:30.944Z,100.00
2023-05-02T23:16:00.911Z,100.00
2023-05-02T23:18:32.341Z,100.00
2023-05-02T23:21:03.714Z,100.00
2023-05-02T23:23:33.895Z,100.00
2023-05-02T23:26:03.713Z,100.00
2023-05-02T23:28:33.968Z,100.00
2023-05-02T23:31:04.782Z,100.00
2023-05-02T23:33:35.892Z,100.00
2023-05-02T23:36:07.901Z,100.00
2023-05-02T23:38:38.664Z,100.00
2023-05-02T23:41:08.579Z,100.00
2023-05-02T23:43:38.640Z,100.00
2023-05-02T23:46:08.939Z,100.00
2023-05-02T23:48:38.936Z,100.00
2023-05-02T23:51:08.854Z,100.00
2023-05-02T23:53:38.881Z,100.00
2023-05-02T23:56:09.493Z,100.00
2023-05-02T23:58:39.646Z,100.00
